createdAt,value
2023-05-09T00:01:55.207Z,4.16
2023-05-09T00:04:27.442Z,4.14
2023-05-09T00:06:59.590Z,4.12
2023-05-09T00:09:31.601Z,4.13
2023-05-09T00:12:04.279Z,4.18
2023-05-09T00:14:37.180Z,4.25
2023-05-09T00:17:09.799Z,4.32
2023-05-09T00:19:41.994Z,4.42
2023-05-09T00:22:14.033Z,4.50
2023-05-09T00:24:46.212Z,4.54
2023-05-09T00:27:18.811Z,4.57
2023-05-09T00:29:50.923Z,4.59
2023-05-09T00:32:23.261Z,4.55
2023-05-09T00:34:55.326Z,4.52
2023-05-09T00:37:27.457Z,4.52
2023-05-09T00:40:00.055Z,4.51
2023-05-09T00:42:32.221Z,4.47
2023-05-09T00:45:04.683Z,4.47
2023-05-09T00:47:37.337Z,4.47
2023-05-09T00:50:11.941Z,4.46
2023-05-09T00:52:44.062Z,4.46
2023-05-09T00:55:16.469Z,4.47
2023-05-09T00:57:48.947Z,4.54
2023-05-09T01:00:22.331Z,4.63
2023-05-09T01:02:57.356Z,4.71
2023-05-09T01:05:38.359Z,4.85
2023-05-09T01:08:19.251Z,4.98
2023-05-09T01:11:08.906Z,5.01
2023-05-09T01:13:47.400Z,4.97
2023-05-09T01:16:25.508Z,4.97
2023-05-09T01:19:08.518Z,4.98
2023-05-09T01:21:45.594Z,4.93
2023-05-09T01:24:35.534Z,4.89
2023-05-09T01:27:33.399Z,4.87
2023-05-09T01:30:08.627Z,4.82
2023-05-09T01:32:44.143Z,4.80
2023-05-09T01:35:17.849Z,4.80
2023-05-09T01:37:52.285Z,4.79
2023-05-09T01:40:26.805Z,4.76
2023-05-09T01:43:03.171Z,4.75
2023-05-09T01:45:36.189Z,4.75
2023-05-09T01:48:09.735Z,4.78
2023-05-09T01:50:45.107Z,4.85
2023-05-09T01:53:18.949Z,4.94
2023-05-09T01:55:53.966Z,5.06
2023-05-09T01:58:27.352Z,5.19
2023-05-09T02:01:00.479Z,5.25
2023-05-09T02:03:34.251Z,5.28
2023-05-09T02:06:07.334Z,5.26
2023-05-09T02:08:40.105Z,5.25
2023-05-09T02:11:12.179Z,5.24
2023-05-09T02:13:44.443Z,5.20
2023-05-09T02:16:17.147Z,5.17
2023-05-09T02:18:49.322Z,5.13
2023-05-09T02:21:21.457Z,5.10
2023-05-09T02:23:53.529Z,5.06
2023-05-09T02:26:27.128Z,5.03
2023-05-09T02:29:02.117Z,5.00
2023-05-09T02:31:35.182Z,4.97
2023-05-09T02:34:08.560Z,5.00
2023-05-09T02:36:41.298Z,5.04
2023-05-09T02:39:13.734Z,5.07
2023-05-09T02:41:51.104Z,5.10
2023-05-09T02:44:24.030Z,5.15
2023-05-09T02:46:56.130Z,5.17
2023-05-09T02:49:32.296Z,5.17
2023-05-09T02:52:06.096Z,5.15
2023-05-09T02:54:38.443Z,5.09
2023-05-09T02:57:10.803Z,5.05
2023-05-09T02:59:42.975Z,4.98
2023-05-09T03:02:15.104Z,4.95
2023-05-09T03:04:47.427Z,4.92
2023-05-09T03:07:19.947Z,4.88
2023-05-09T03:09:52.019Z,4.85
2023-05-09T03:12:24.309Z,4.82
2023-05-09T03:14:58.176Z,4.79
2023-05-09T03:17:30.161Z,4.76
2023-05-09T03:20:04.253Z,4.75
2023-05-09T03:22:36.666Z,4.76
2023-05-09T03:25:10.904Z,4.77
2023-05-09T03:27:44.070Z,4.81
2023-05-09T03:30:19.418Z,4.91
2023-05-09T03:32:53.369Z,4.97
2023-05-09T03:35:26.007Z,5.02
2023-05-09T03:37:58.807Z,5.01
2023-05-09T03:40:30.818Z,5.03
2023-05-09T03:43:10.276Z,5.03
2023-05-09T03:45:42.537Z,5.06
2023-05-09T03:48:15.125Z,5.06
2023-05-09T03:50:51.186Z,5.03
2023-05-09T03:53:24.258Z,5.01
2023-05-09T03:55:57.072Z,5.01
2023-05-09T03:58:29.997Z,5.04
2023-05-09T04:01:02.848Z,5.05
2023-05-09T04:03:35.305Z,5.06
2023-05-09T04:06:08.235Z,5.08
2023-05-09T04:08:43.553Z,5.11
2023-05-09T04:11:15.647Z,5.19
2023-05-09T04:13:50.578Z,5.28
2023-05-09T04:16:34.825Z,5.38
2023-05-09T04:19:07.418Z,5.49
2023-05-09T04:21:40.680Z,5.61
2023-05-09T04:24:13.707Z,5.71
2023-05-09T04:26:48.121Z,5.77
2023-05-09T04:29:22.958Z,5.79
2023-05-09T04:31:58.457Z,5.88
2023-05-09T04:34:31.777Z,5.91
2023-05-09T04:37:06.997Z,6.00
2023-05-09T04:39:39.770Z,6.07
2023-05-09T04:42:18.683Z,6.16
2023-05-09T04:44:51.978Z,6.20
2023-05-09T04:47:24.742Z,6.28
2023-05-09T04:49:56.792Z,6.38
2023-05-09T04:52:28.862Z,6.47
2023-05-09T04:55:01.289Z,6.58
2023-05-09T04:57:36.357Z,6.69
2023-05-09T05:00:12.868Z,6.81
2023-05-09T05:02:47.528Z,6.94
2023-05-09T05:05:24.965Z,7.12
2023-05-09T05:07:58.412Z,7.33
2023-05-09T05:10:34.555Z,7.52
2023-05-09T05:13:11.184Z,7.70
2023-05-09T05:15:46.264Z,7.84
2023-05-09T05:18:19.681Z,8.00
2023-05-09T05:20:51.681Z,8.14
2023-05-09T05:23:24.035Z,8.30
2023-05-09T05:25:57.976Z,8.44
2023-05-09T05:28:30.330Z,8.57
2023-05-09T05:31:03.082Z,8.69
2023-05-09T05:33:35.119Z,8.82
2023-05-09T05:36:08.442Z,8.89
2023-05-09T05:38:40.759Z,8.98
2023-05-09T05:41:12.778Z,9.02
2023-05-09T05:43:45.311Z,9.13
2023-05-09T05:46:19.266Z,9.25
2023-05-09T05:48:51.981Z,9.35
2023-05-09T05:51:24.061Z,9.43
2023-05-09T05:53:56.463Z,9.55
2023-05-09T05:56:28.894Z,9.66
2023-05-09T05:59:01.377Z,9.77
2023-05-09T06:01:33.407Z,9.89
2023-05-09T06:04:05.786Z,10.01
2023-05-09T06:06:38.762Z,10.13
2023-05-09T06:09:11.219Z,10.24
2023-05-09T06:11:43.268Z,10.34
2023-05-09T06:14:16.552Z,10.45
2023-05-09T06:16:49.061Z,10.59
2023-05-09T06:19:21.676Z,10.68
2023-05-09T06:21:54.460Z,10.77
2023-05-09T06:24:35.691Z,10.92
2023-05-09T06:27:09.156Z,11.08
2023-05-09T06:29:41.195Z,11.20
2023-05-09T06:32:13.275Z,11.28
2023-05-09T06:34:45.367Z,11.33
2023-05-09T06:37:17.814Z,11.29
2023-05-09T06:39:51.138Z,11.39
2023-05-09T06:42:23.484Z,11.48
2023-05-09T06:44:55.824Z,11.57
2023-05-09T06:47:28.027Z,11.69
2023-05-09T06:50:00.097Z,11.82
2023-05-09T06:52:32.756Z,11.95
2023-05-09T06:55:04.971Z,12.13
2023-05-09T06:57:37.240Z,12.24
2023-05-09T07:00:12.987Z,12.24
2023-05-09T07:02:45.606Z,12.32
2023-05-09T07:05:18.486Z,12.31
2023-05-09T07:07:51.762Z,12.20
2023-05-09T07:10:27.638Z,12.18
2023-05-09T07:13:00.403Z,12.25
2023-05-09T07:15:41.813Z,12.42
2023-05-09T07:18:16.388Z,12.41
2023-05-09T07:20:48.684Z,12.48
2023-05-09T07:23:21.314Z,12.60
2023-05-09T07:25:59.795Z,12.80
2023-05-09T07:28:32.011Z,12.96
2023-05-09T07:31:07.303Z,13.09
2023-05-09T07:33:39.726Z,13.22
2023-05-09T07:36:13.855Z,13.42
2023-05-09T07:38:52.588Z,13.62
2023-05-09T07:41:25.398Z,13.71
2023-05-09T07:43:58.527Z,13.77
2023-05-09T07:46:31.249Z,13.77
2023-05-09T07:49:03.902Z,13.99
2023-05-09T07:51:36.255Z,14.22
2023-05-09T07:54:10.702Z,14.42
2023-05-09T07:56:43.423Z,14.51
2023-05-09T07:59:15.600Z,14.55
2023-05-09T08:01:49.399Z,14.75
2023-05-09T08:04:21.761Z,14.91
2023-05-09T08:06:54.039Z,15.04
2023-05-09T08:09:26.840Z,15.16
2023-05-09T08:11:59.660Z,15.39
2023-05-09T08:14:31.935Z,15.48
2023-05-09T08:17:04.105Z,15.56
2023-05-09T08:19:36.290Z,15.65
2023-05-09T08:22:08.651Z,15.52
2023-05-09T08:24:40.912Z,15.55
2023-05-09T08:27:14.109Z,15.58
2023-05-09T08:29:46.476Z,15.42
2023-05-09T08:32:20.067Z,15.48
2023-05-09T08:34:52.466Z,15.49
2023-05-09T08:37:24.728Z,15.60
2023-05-09T08:39:56.837Z,15.59
2023-05-09T08:42:31.526Z,15.59
2023-05-09T08:45:07.721Z,15.62
2023-05-09T08:47:40.436Z,15.56
2023-05-09T08:50:15.898Z,15.61
2023-05-09T08:52:47.024Z,15.73
2023-05-09T08:55:19.982Z,15.88
2023-05-09T08:57:53.246Z,16.11
2023-05-09T09:00:26.762Z,16.21
2023-05-09T09:03:02.732Z,16.36
2023-05-09T09:05:41.807Z,16.51
2023-05-09T09:08:15.532Z,16.56
2023-05-09T09:10:48.831Z,16.67
2023-05-09T09:13:22.024Z,16.93
2023-05-09T09:15:59.298Z,17.23
2023-05-09T09:18:34.960Z,17.46
2023-05-09T09:21:11.031Z,17.59
2023-05-09T09:23:45.500Z,17.79
2023-05-09T09:26:19.351Z,17.89
2023-05-09T09:28:52.133Z,18.11
2023-05-09T09:31:26.317Z,18.20
2023-05-09T09:34:05.073Z,18.11
2023-05-09T09:36:37.668Z,18.21
2023-05-09T09:39:10.505Z,18.39
2023-05-09T09:41:45.456Z,18.37
2023-05-09T09:44:19.443Z,18.28
2023-05-09T09:46:52.992Z,18.18
2023-05-09T09:49:27.913Z,18.23
2023-05-09T09:52:01.009Z,18.50
2023-05-09T09:54:36.472Z,18.79
2023-05-09T09:57:09.570Z,18.83
2023-05-09T09:59:42.798Z,18.89
2023-05-09T10:02:15.211Z,18.86
2023-05-09T10:04:47.393Z,18.77
2023-05-09T10:07:24.149Z,18.83
2023-05-09T10:09:56.207Z,19.45
2023-05-09T10:12:28.524Z,19.59
2023-05-09T10:15:00.383Z,19.83
2023-05-09T10:17:33.882Z,19.82
2023-05-09T10:20:10.261Z,19.31
2023-05-09T10:22:43.309Z,18.90
2023-05-09T10:25:20.738Z,18.48
2023-05-09T10:27:55.338Z,18.32
2023-05-09T10:30:35.779Z,18.18
2023-05-09T10:33:12.492Z,17.99
2023-05-09T10:35:49.457Z,17.86
2023-05-09T10:38:22.011Z,17.78
2023-05-09T10:40:56.134Z,17.74
2023-05-09T10:43:29.013Z,18.16
2023-05-09T10:46:01.444Z,18.50
2023-05-09T10:48:35.337Z,18.63
2023-05-09T10:51:08.804Z,18.73
2023-05-09T10:53:48.740Z,19.23
2023-05-09T10:56:30.754Z,19.50
2023-05-09T10:59:03.152Z,19.27
2023-05-09T11:01:39.739Z,19.68
2023-05-09T11:04:15.361Z,20.20
2023-05-09T11:06:54.009Z,20.65
2023-05-09T11:09:38.286Z,20.85
2023-05-09T11:12:14.919Z,20.98
2023-05-09T11:14:48.915Z,21.53
2023-05-09T11:17:33.116Z,22.00
2023-05-09T11:20:07.582Z,22.04
2023-05-09T11:22:44.692Z,21.74
2023-05-09T11:25:19.541Z,21.54
2023-05-09T11:27:52.594Z,21.51
2023-05-09T11:30:36.345Z,21.63
2023-05-09T11:33:23.167Z,21.45
2023-05-09T11:36:19.588Z,21.30
2023-05-09T11:39:01.073Z,21.54
2023-05-09T11:41:39.610Z,21.61
2023-05-09T11:44:20.922Z,21.72
2023-05-09T11:46:53.246Z,22.02
2023-05-09T11:49:25.388Z,22.48
2023-05-09T11:52:00.660Z,22.58
2023-05-09T11:54:32.225Z,22.86
2023-05-09T11:57:04.907Z,22.82
2023-05-09T11:59:39.842Z,22.95
2023-05-09T12:02:12.402Z,23.37
2023-05-09T12:04:44.899Z,23.55
2023-05-09T12:07:18.722Z,23.85
2023-05-09T12:09:54.550Z,23.54
2023-05-09T12:12:27.008Z,22.60
2023-05-09T12:15:03.103Z,22.29
2023-05-09T12:17:35.328Z,22.67
2023-05-09T12:20:09.089Z,22.97
2023-05-09T12:22:43.897Z,23.22
2023-05-09T12:25:16.991Z,23.47
2023-05-09T12:27:49.669Z,23.93
2023-05-09T12:30:22.081Z,23.98
2023-05-09T12:32:54.435Z,23.85
2023-05-09T12:35:27.212Z,24.06
2023-05-09T12:38:01.960Z,24.47
2023-05-09T12:40:36.773Z,24.81
2023-05-09T12:43:10.168Z,24.64
2023-05-09T12:45:43.774Z,24.86
2023-05-09T12:48:16.680Z,24.99
2023-05-09T12:50:51.290Z,25.28
2023-05-09T12:53:31.574Z,25.62
2023-05-09T12:56:13.077Z,25.78
2023-05-09T12:58:52.465Z,25.55
2023-05-09T13:01:29.728Z,25.67
2023-05-09T13:04:07.492Z,26.30
2023-05-09T13:06:51.387Z,26.74
2023-05-09T13:09:24.111Z,26.91
2023-05-09T13:11:59.656Z,27.24
2023-05-09T13:14:31.988Z,26.59
2023-05-09T13:17:04.651Z,26.00
2023-05-09T13:19:39.523Z,25.77
2023-05-09T13:22:12.443Z,26.47
2023-05-09T13:24:44.778Z,26.96
2023-05-09T13:27:17.181Z,27.45
2023-05-09T13:29:49.520Z,27.81
2023-05-09T13:32:22.106Z,28.03
2023-05-09T13:34:56.117Z,27.91
2023-05-09T13:37:30.583Z,27.76
2023-05-09T13:40:02.872Z,27.94
2023-05-09T13:42:38.330Z,28.05
2023-05-09T13:45:12.568Z,27.87
2023-05-09T13:47:44.828Z,27.59
2023-05-09T13:50:17.180Z,28.01
2023-05-09T13:52:50.510Z,28.28
2023-05-09T13:55:23.016Z,28.51
2023-05-09T13:57:55.094Z,28.94
2023-05-09T14:00:28.055Z,29.00
2023-05-09T14:03:00.196Z,28.20
2023-05-09T14:05:35.322Z,27.46
2023-05-09T14:08:09.589Z,27.13
2023-05-09T14:10:42.046Z,27.17
2023-05-09T14:13:15.758Z,26.51
2023-05-09T14:15:48.038Z,26.04
2023-05-09T14:18:21.079Z,25.37
2023-05-09T14:20:53.771Z,24.97
2023-05-09T14:23:25.938Z,24.68
2023-05-09T14:25:58.353Z,25.11
2023-05-09T14:28:30.458Z,25.43
2023-05-09T14:31:02.702Z,25.41
2023-05-09T14:33:36.201Z,25.48
2023-05-09T14:36:08.908Z,25.79
2023-05-09T14:38:41.697Z,25.71
2023-05-09T14:41:15.556Z,25.08
2023-05-09T14:43:48.729Z,25.08
2023-05-09T14:46:24.969Z,24.49
2023-05-09T14:49:02.979Z,24.35
2023-05-09T14:51:35.020Z,24.83
2023-05-09T14:54:07.303Z,25.16
2023-05-09T14:56:39.335Z,24.84
2023-05-09T14:59:12.281Z,24.37
2023-05-09T15:01:45.673Z,23.76
2023-05-09T15:04:17.972Z,23.09
2023-05-09T15:06:50.176Z,23.13
2023-05-09T15:09:22.737Z,23.92
2023-05-09T15:11:55.221Z,24.50
2023-05-09T15:14:27.428Z,24.67
2023-05-09T15:17:03.456Z,25.01
2023-05-09T15:19:36.584Z,25.07
2023-05-09T15:22:09.409Z,24.47
2023-05-09T15:24:44.334Z,24.51
2023-05-09T15:27:16.469Z,24.91
2023-05-09T15:29:48.645Z,25.07
2023-05-09T15:32:20.923Z,24.89
2023-05-09T15:34:53.012Z,24.95
2023-05-09T15:37:25.155Z,25.16
2023-05-09T15:39:57.350Z,25.20
2023-05-09T15:42:29.903Z,25.18
2023-05-09T15:45:02.107Z,25.10
2023-05-09T15:47:34.383Z,24.82
2023-05-09T15:50:07.534Z,24.53
2023-05-09T15:52:39.907Z,24.26
2023-05-09T15:55:14.281Z,23.57
2023-05-09T15:57:48.433Z,23.08
2023-05-09T16:00:21.212Z,22.47
2023-05-09T16:02:53.884Z,22.02
2023-05-09T16:05:26.995Z,21.59
2023-05-09T16:07:59.269Z,21.27
2023-05-09T16:10:31.748Z,21.03
2023-05-09T16:13:04.081Z,20.78
2023-05-09T16:15:36.657Z,20.51
2023-05-09T16:18:08.954Z,20.32
2023-05-09T16:20:42.363Z,20.18
2023-05-09T16:23:14.549Z,19.99
2023-05-09T16:25:49.869Z,19.77
2023-05-09T16:28:23.702Z,19.63
2023-05-09T16:30:55.976Z,19.51
2023-05-09T16:33:28.280Z,19.31
2023-05-09T16:36:01.968Z,19.02
2023-05-09T16:38:34.370Z,18.79
2023-05-09T16:41:06.655Z,18.60
2023-05-09T16:43:40.289Z,18.47
2023-05-09T16:46:12.636Z,18.31
2023-05-09T16:48:45.128Z,18.15
2023-05-09T16:51:18.255Z,18.00
2023-05-09T16:53:50.615Z,17.85
2023-05-09T16:56:23.909Z,17.74
2023-05-09T16:58:56.008Z,17.63
2023-05-09T17:01:28.127Z,17.50
2023-05-09T17:04:01.769Z,17.40
2023-05-09T17:06:34.499Z,17.25
2023-05-09T17:09:07.220Z,17.13
2023-05-09T17:11:39.759Z,17.03
2023-05-09T17:14:12.239Z,16.92
2023-05-09T17:16:45.387Z,16.83
2023-05-09T17:19:19.055Z,16.74
2023-05-09T17:21:56.280Z,16.62
2023-05-09T17:24:29.634Z,16.53
2023-05-09T17:27:02.291Z,16.48
2023-05-09T17:29:34.822Z,16.39
2023-05-09T17:32:07.900Z,16.29
2023-05-09T17:34:40.752Z,16.19
2023-05-09T17:37:13.210Z,16.11
2023-05-09T17:39:49.528Z,16.01
2023-05-09T17:42:21.990Z,15.88
2023-05-09T17:44:55.085Z,15.78
2023-05-09T17:47:27.490Z,15.71
2023-05-09T17:50:00.013Z,15.62
2023-05-09T17:52:32.503Z,15.53
2023-05-09T17:55:07.833Z,15.42
2023-05-09T17:57:40.932Z,15.32
2023-05-09T18:00:16.613Z,15.21
2023-05-09T18:02:51.114Z,15.14
2023-05-09T18:05:26.158Z,15.04
2023-05-09T18:08:03.728Z,14.93
2023-05-09T18:10:36.258Z,14.82
2023-05-09T18:13:09.186Z,14.75
2023-05-09T18:15:41.942Z,14.65
2023-05-09T18:18:15.847Z,14.58
2023-05-09T18:20:49.173Z,14.50
2023-05-09T18:23:25.022Z,14.40
2023-05-09T18:25:57.597Z,14.33
2023-05-09T18:28:30.691Z,14.26
2023-05-09T18:31:06.402Z,14.20
2023-05-09T18:33:45.525Z,14.10
2023-05-09T18:36:22.145Z,13.98
2023-05-09T18:38:54.788Z,13.91
2023-05-09T18:41:32.229Z,13.86
2023-05-09T18:44:07.272Z,13.77
2023-05-09T18:46:41.528Z,13.69
2023-05-09T18:49:17.384Z,13.63
2023-05-09T18:51:51.161Z,13.57
2023-05-09T18:54:23.768Z,13.52
2023-05-09T18:56:57.225Z,13.42
2023-05-09T18:59:32.053Z,13.31
2023-05-09T19:02:04.893Z,13.24
2023-05-09T19:04:37.778Z,13.18
2023-05-09T19:07:10.707Z,13.10
2023-05-09T19:09:43.974Z,13.01
2023-05-09T19:12:17.811Z,12.95
2023-05-09T19:14:50.591Z,12.88
2023-05-09T19:17:25.825Z,12.80
2023-05-09T19:19:58.687Z,12.68
2023-05-09T19:22:31.745Z,12.62
2023-05-09T19:25:05.298Z,12.58
2023-05-09T19:27:37.922Z,12.53
2023-05-09T19:30:13.294Z,12.45
2023-05-09T19:32:49.459Z,12.36
2023-05-09T19:35:28.302Z,12.30
2023-05-09T19:38:01.428Z,12.25
2023-05-09T19:40:36.182Z,12.22
2023-05-09T19:43:08.820Z,12.13
2023-05-09T19:46:09.399Z,12.05
2023-05-09T19:48:47.309Z,11.95
2023-05-09T19:51:20.057Z,11.89
2023-05-09T19:53:52.750Z,11.81
2023-05-09T19:56:25.914Z,11.78
2023-05-09T19:59:15.088Z,11.77
2023-05-09T20:01:57.118Z,11.76
2023-05-09T20:04:32.182Z,11.69
2023-05-09T20:07:04.925Z,11.61
2023-05-09T20:09:40.143Z,11.59
2023-05-09T20:12:15.792Z,11.55
2023-05-09T20:15:31.824Z,11.51
2023-05-09T20:18:19.773Z,11.41
2023-05-09T20:20:52.130Z,11.34
2023-05-09T20:23:25.504Z,11.28
2023-05-09T20:25:58.311Z,11.25
2023-05-09T20:28:33.027Z,11.19
2023-05-09T20:31:05.475Z,11.12
2023-05-09T20:33:40.108Z,11.05
2023-05-09T20:36:12.585Z,11.00
2023-05-09T20:38:45.154Z,10.94
2023-05-09T20:41:17.467Z,10.89
2023-05-09T20:43:51.036Z,10.82
2023-05-09T20:46:23.342Z,10.78
2023-05-09T20:48:56.007Z,10.73
2023-05-09T20:51:28.384Z,10.66
2023-05-09T20:54:01.140Z,10.57
2023-05-09T20:56:35.510Z,10.54
2023-05-09T20:59:08.859Z,10.52
2023-05-09T21:01:45.396Z,10.47
2023-05-09T21:04:18.131Z,10.42
2023-05-09T21:06:50.872Z,10.38
2023-05-09T21:09:23.086Z,10.32
2023-05-09T21:11:55.148Z,10.27
2023-05-09T21:14:27.833Z,10.24
2023-05-09T21:17:00.204Z,10.21
2023-05-09T21:19:32.425Z,10.21
2023-05-09T21:22:04.654Z,10.16
2023-05-09T21:24:36.657Z,10.08
2023-05-09T21:27:08.897Z,10.00
2023-05-09T21:29:41.121Z,9.94
2023-05-09T21:32:13.173Z,9.85
2023-05-09T21:34:45.462Z,9.79
2023-05-09T21:37:17.613Z,9.77
2023-05-09T21:39:49.694Z,9.73
2023-05-09T21:42:23.141Z,9.68
2023-05-09T21:44:55.244Z,9.65
2023-05-09T21:47:27.382Z,9.56
2023-05-09T21:49:59.570Z,9.51
2023-05-09T21:52:31.602Z,9.49
2023-05-09T21:55:04.046Z,9.46
2023-05-09T21:57:36.100Z,9.42
2023-05-09T22:00:14.525Z,9.35
2023-05-09T22:02:47.157Z,9.32
2023-05-09T22:05:19.242Z,9.30
2023-05-09T22:07:51.945Z,9.26
2023-05-09T22:10:24.223Z,9.22
2023-05-09T22:12:57.169Z,9.21
2023-05-09T22:15:29.426Z,9.14
2023-05-09T22:18:01.837Z,9.11
2023-05-09T22:20:34.003Z,9.09
2023-05-09T22:23:06.302Z,9.06
2023-05-09T22:25:38.476Z,9.03
2023-05-09T22:28:10.664Z,8.99
2023-05-09T22:30:42.848Z,8.95
2023-05-09T22:33:14.994Z,8.89
2023-05-09T22:35:47.044Z,8.79
2023-05-09T22:38:19.096Z,8.74
2023-05-09T22:40:51.030Z,8.65
2023-05-09T22:43:24.277Z,8.59
2023-05-09T22:45:57.476Z,8.59
2023-05-09T22:48:29.458Z,8.54
2023-05-09T22:51:01.528Z,8.53
2023-05-09T22:53:34.050Z,8.55
2023-05-09T22:56:07.684Z,8.55
2023-05-09T22:58:39.904Z,8.53
2023-05-09T23:01:12.035Z,8.51
2023-05-09T23:03:44.127Z,8.48
2023-05-09T23:06:16.283Z,8.41
2023-05-09T23:08:48.339Z,8.36
2023-05-09T23:11:21.115Z,8.28
2023-05-09T23:13:53.416Z,8.15
2023-05-09T23:16:25.559Z,8.00
2023-05-09T23:18:57.757Z,7.92
2023-05-09T23:21:30.309Z,7.87
2023-05-09T23:24:02.381Z,7.77
2023-05-09T23:26:34.399Z,7.69
2023-05-09T23:29:06.583Z,7.62
2023-05-09T23:31:38.620Z,7.56
2023-05-09T23:34:10.752Z,7.49
2023-05-09T23:36:42.872Z,7.36
2023-05-09T23:39:14.940Z,7.31
2023-05-09T23:41:46.911Z,7.28
2023-05-09T23:44:19.019Z,7.23
2023-05-09T23:46:51.108Z,7.24
2023-05-09T23:49:23.147Z,7.26
2023-05-09T23:51:55.175Z,7.28
2023-05-09T23:54:27.293Z,7.28
2023-05-09T23:56:59.407Z,7.29
2023-05-09T23:59:31.579Z,7.31
